< < Back
Terminal Aerodrome Forecast


Current Version              Previous Versions:   1  2  3  4  5  6  7  8  9  

Terminal Aerodrome Forecast

837
FTUS42 KJAX 192300
TAFJAX
TAF
KJAX 192329Z 2000/2024 03004KT P6SM FEW040 SCT250
     FM200800 04003KT 5SM BR FEW045 BKN250
     FM201500 07007KT P6SM BKN045=

Latest METAR

072
SAUS80 KWBC 200800
MTRJAX
METAR KJAX 200756Z 36003KT 10SM FEW050 13/13 A3006 RMK AO2 SLP178
T01330128


USA.gov is the U.S. government's official web portal to all federal, state and local government web resources and services.